Aeroporto :
LOGIN :

Iscrizione | Disclaimer

   EN    FR    IT 

 










Sommario :    VFR   VFR Marginale   IFR   IFR Intensivo   IFR Molto Intensivo
Visibilità : 
Base nubi : 
>= 8 km
>= 3000ft
5 / 8 km
1000 / 3000 ft
1500m / 5 km
500 / 1000 ft
800 / 1500m
200 / 500 ft
< 800m
< 200 ft
Simboli :   Temporali  Nebbia  Neve Forte  Precipitazioni Forti  Vento > 20 kt
SIGMETs :   Varie  Temporali  Ghiacco  Turbolenza  Onda orograficha  Ceneri Vulcaniche






- Altitudine del aeroporto : 1585 ft
- Codice IATA : SIR


LSGS - Sion

ULTIMO METAR :
  • 211350Z 26014KT 9999 SCT070 SCT100 09/02 Q1015

METARs OBSOLETI :
  • 211320Z 25014KT 9999 FEW020 SCT060 BKN100 07/01 Q1015
  • 211250Z 25017KT 220V280 9999 FEW020 SCT060 BKN100 08/M00 Q1014
  • 211220Z 26012KT 230V300 9999 SCT060 BKN120 11/00 Q1014
  • 211150Z 25013KT 220V280 9999 SCT060 BKN120 09/M00 Q1014
  • 211120Z 25014KT 210V270 9999 SCT060 BKN120 08/00 Q1015
  • 211050Z 26014KT 9999 FEW030 SCT060 BKN120 08/01 Q1016
  • 211020Z 24009KT 210V280 9999 FEW030 SCT070 BKN120 08/01 Q1016
  • 210950Z 25006KT 210V280 9999 FEW030 SCT060 BKN120 07/01 Q1016
  • 210920Z 23004KT 150V290 9999 FEW030 SCT060 BKN120 07/00 Q1017

TAF TAF LSGS
Valido dal 21 a 12 ore il 21 a 21 ore UTC


211125Z 2112/2121 26014KT 9999 SCT080 BKN120
BECMG 2118/2120 VRB02KT



MetMap, La meteo Aeronautica in un colpo d'occhio ! - Copyright ORBIFLY Dicembre 2007 - Disclaimer

ORBIFLY MET'MAP TEAM :

Programmazione e sviluppo : Alexandra Zaïnal
Concezione : Baudouin d'Aumeries
Supporto tecnico e logistico : Manuel Goepfert
Aiuto : Marc-Olivier Méhu
Aiuto per la traduzione : Arnaldo La Scala




FONTI E CREDITI :

   NOAA